createdAt,value
2017-05-28T00:00:06.341Z,10.8
2017-05-28T00:01:25.058Z,10.7
2017-05-28T00:02:43.732Z,10.7
2017-05-28T00:04:02.436Z,10.7
2017-05-28T00:05:21.124Z,10.7
2017-05-28T00:06:39.791Z,10.7
2017-05-28T00:07:58.460Z,10.7
2017-05-28T00:09:17.141Z,10.7
2017-05-28T00:10:35.824Z,10.6
2017-05-28T00:11:54.498Z,10.6
2017-05-28T00:13:13.227Z,10.6
2017-05-28T00:14:31.920Z,10.6
2017-05-28T00:15:50.591Z,10.6
2017-05-28T00:17:09.304Z,10.6
2017-05-28T00:18:27.978Z,10.6
2017-05-28T00:19:46.704Z,10.6
2017-05-28T00:21:05.389Z,10.6
2017-05-28T00:22:24.134Z,10.5
2017-05-28T00:23:42.857Z,10.6
2017-05-28T00:25:01.564Z,10.5
2017-05-28T00:26:20.236Z,10.5
2017-05-28T00:27:38.961Z,10.4
2017-05-28T00:28:57.648Z,10.4
2017-05-28T00:30:16.351Z,10.3
2017-05-28T00:31:35.027Z,10.3
2017-05-28T00:32:53.697Z,10.3
2017-05-28T00:34:12.404Z,10.3
2017-05-28T00:35:31.120Z,10.3
2017-05-28T00:36:49.838Z,10.3
2017-05-28T00:38:08.557Z,10.3
2017-05-28T00:39:27.244Z,10.3
2017-05-28T00:40:45.958Z,10.3
2017-05-28T00:42:04.628Z,10.3
2017-05-28T00:43:23.336Z,10.2
2017-05-28T00:44:42.014Z,10.2
2017-05-28T00:46:00.753Z,10.3
2017-05-28T00:47:19.415Z,10.2
2017-05-28T00:48:38.100Z,10.3
2017-05-28T00:49:56.771Z,10.3
2017-05-28T00:51:15.451Z,10.3
2017-05-28T00:52:34.178Z,10.4
2017-05-28T00:53:52.850Z,10.4
2017-05-28T00:55:11.559Z,10.3
2017-05-28T00:56:30.241Z,10.3
2017-05-28T00:57:48.945Z,10.3
2017-05-28T00:59:07.624Z,10.2
2017-05-28T01:00:26.301Z,10.2
2017-05-28T01:01:44.990Z,10.2
2017-05-28T01:03:03.659Z,10.2
2017-05-28T01:04:22.394Z,10.2
2017-05-28T01:05:41.087Z,10.2
2017-05-28T01:06:59.760Z,10.2
2017-05-28T01:08:18.428Z,10.2
2017-05-28T01:09:37.128Z,10.2
2017-05-28T01:10:55.791Z,10.2
2017-05-28T01:12:14.515Z,10.2
2017-05-28T01:13:33.214Z,10.2
2017-05-28T01:14:51.893Z,10.2
2017-05-28T01:16:10.590Z,10.2
2017-05-28T01:17:29.314Z,10.2
2017-05-28T01:18:47.999Z,10.2
2017-05-28T01:20:06.701Z,10.2
2017-05-28T01:21:25.372Z,10.2
2017-05-28T01:22:44.124Z,10.2
2017-05-28T01:24:02.827Z,10.2
2017-05-28T01:25:21.495Z,10.1
2017-05-28T01:26:40.165Z,10.2
2017-05-28T01:27:58.925Z,10.2
2017-05-28T01:29:17.608Z,10.2
2017-05-28T01:30:36.336Z,10.2
2017-05-28T01:31:55.022Z,10.2
2017-05-28T01:33:13.718Z,10.2
2017-05-28T01:34:32.417Z,10.2
2017-05-28T01:35:51.119Z,10.2
2017-05-28T01:37:09.780Z,10.1
2017-05-28T01:38:28.455Z,10.2
2017-05-28T01:39:47.170Z,10.2
2017-05-28T01:41:05.841Z,10.2
2017-05-28T01:42:24.571Z,10.2
2017-05-28T01:43:43.237Z,10.2
2017-05-28T01:45:01.914Z,10.2
2017-05-28T01:46:20.582Z,10.2
2017-05-28T01:47:39.284Z,10.1
2017-05-28T01:48:58.007Z,10.2
2017-05-28T01:50:16.668Z,10.2
2017-05-28T01:51:35.337Z,10.1
2017-05-28T01:52:54.047Z,10.1
2017-05-28T01:54:12.748Z,10.1
2017-05-28T01:55:31.440Z,10.1
2017-05-28T01:56:50.159Z,10.1
2017-05-28T01:58:08.852Z,10.1
2017-05-28T01:59:27.569Z,10.1
2017-05-28T02:00:46.242Z,10.2
2017-05-28T02:02:04.909Z,10.2
2017-05-28T02:03:23.594Z,10.2
2017-05-28T02:04:42.336Z,10.2
2017-05-28T02:06:00.997Z,10.2
2017-05-28T02:07:19.668Z,10.1
2017-05-28T02:08:38.385Z,10.2
2017-05-28T02:09:57.071Z,10.2
2017-05-28T02:11:15.746Z,10.1
2017-05-28T02:12:34.415Z,10.1
2017-05-28T02:13:53.138Z,10.1
2017-05-28T02:15:11.877Z,10.1
2017-05-28T02:16:30.566Z,10.1
2017-05-28T02:17:49.258Z,10.1
2017-05-28T02:19:07.964Z,10
2017-05-28T02:20:26.680Z,10.1
2017-05-28T02:21:45.350Z,10.1
2017-05-28T02:23:04.046Z,10.1
2017-05-28T02:24:22.709Z,10.1
2017-05-28T02:25:41.384Z,10.1
2017-05-28T02:27:00.053Z,10.1
2017-05-28T02:28:18.728Z,10.1
2017-05-28T02:29:37.490Z,10.2
2017-05-28T02:30:56.207Z,10.2
2017-05-28T02:32:14.922Z,10.2
2017-05-28T02:33:33.589Z,10.1
2017-05-28T02:34:52.320Z,10.1
2017-05-28T02:36:10.996Z,10.1
2017-05-28T02:37:29.668Z,10.1
2017-05-28T02:38:48.349Z,10.1
2017-05-28T02:40:07.014Z,10.1
2017-05-28T02:41:25.691Z,10
2017-05-28T02:42:44.364Z,10.1
2017-05-28T02:44:03.027Z,10.1
2017-05-28T02:45:21.694Z,10.1
2017-05-28T02:46:40.393Z,10.1
2017-05-28T02:47:59.123Z,10
2017-05-28T02:49:17.797Z,10.1
2017-05-28T02:50:36.476Z,10.1
2017-05-28T02:51:55.209Z,10
2017-05-28T02:53:13.903Z,10.1
2017-05-28T02:54:32.624Z,10.1
2017-05-28T02:55:51.294Z,10
2017-05-28T02:57:09.975Z,10
2017-05-28T02:58:28.680Z,10
2017-05-28T02:59:47.399Z,10
2017-05-28T03:01:06.097Z,10
2017-05-28T03:02:24.781Z,10
2017-05-28T03:03:43.456Z,10
2017-05-28T03:05:02.129Z,10.1
2017-05-28T03:06:20.833Z,10.1
2017-05-28T03:07:39.581Z,10.1
2017-05-28T03:08:58.303Z,10.1
2017-05-28T03:10:16.975Z,10.1
2017-05-28T03:11:35.649Z,10.1
2017-05-28T03:12:54.320Z,10.1
2017-05-28T03:14:12.989Z,10.1
2017-05-28T03:15:31.689Z,10.1
2017-05-28T03:16:50.413Z,10.1
2017-05-28T03:18:09.171Z,10.1
2017-05-28T03:19:27.836Z,10.1
2017-05-28T03:20:46.550Z,10.1
2017-05-28T03:22:05.219Z,10.1
2017-05-28T03:23:23.930Z,10.1
2017-05-28T03:24:42.598Z,10.2
2017-05-28T03:26:01.305Z,10.2
2017-05-28T03:27:20.020Z,10.2
2017-05-28T03:28:38.743Z,10.2
2017-05-28T03:29:57.431Z,10.2
2017-05-28T03:31:16.093Z,10.2
2017-05-28T03:32:34.768Z,10.2
2017-05-28T03:33:53.496Z,10.3
2017-05-28T03:35:12.181Z,10.3
2017-05-28T03:36:30.881Z,10.3
2017-05-28T03:37:49.606Z,10.3
2017-05-28T03:39:08.275Z,10.4
2017-05-28T03:40:26.946Z,10.4
2017-05-28T03:41:45.639Z,10.5
2017-05-28T03:43:04.333Z,10.6
2017-05-28T03:44:23.025Z,10.6
2017-05-28T03:45:41.743Z,10.6
2017-05-28T03:47:00.431Z,10.7
2017-05-28T03:48:19.124Z,10.9
2017-05-28T03:49:37.806Z,10.9
2017-05-28T03:50:56.483Z,10.9
2017-05-28T03:52:15.166Z,11
2017-05-28T03:53:33.878Z,11.1
2017-05-28T03:54:52.605Z,11.2
2017-05-28T03:56:11.275Z,11.3
2017-05-28T03:57:29.947Z,11.4
2017-05-28T03:58:48.627Z,11.5
2017-05-28T04:00:07.354Z,11.6
2017-05-28T04:01:26.031Z,11.6
2017-05-28T04:02:44.693Z,11.6
2017-05-28T04:04:03.364Z,11.6
2017-05-28T04:05:22.048Z,11.7
2017-05-28T04:06:40.718Z,11.7
2017-05-28T04:07:59.386Z,11.8
2017-05-28T04:09:18.103Z,11.8
2017-05-28T04:10:36.802Z,11.8
2017-05-28T04:11:55.472Z,11.9
2017-05-28T04:13:14.154Z,12
2017-05-28T04:14:32.861Z,12.1
2017-05-28T04:15:51.567Z,12.2
2017-05-28T04:17:10.264Z,12.2
2017-05-28T04:18:28.971Z,12.4
2017-05-28T04:19:47.646Z,12.6
2017-05-28T04:21:06.330Z,12.8
2017-05-28T04:22:24.993Z,13.1
2017-05-28T04:23:43.681Z,13.2
2017-05-28T04:25:02.401Z,13.3
2017-05-28T04:26:21.089Z,13.3
2017-05-28T04:27:39.789Z,13.4
2017-05-28T04:28:58.457Z,13.4
2017-05-28T04:30:17.132Z,13.4
2017-05-28T04:31:35.859Z,13.6
2017-05-28T04:32:54.559Z,13.7
2017-05-28T04:34:13.267Z,13.7
2017-05-28T04:35:31.930Z,13.8
2017-05-28T04:36:50.654Z,13.9
2017-05-28T04:38:09.374Z,14.1
2017-05-28T04:39:28.098Z,14.2
2017-05-28T04:40:46.801Z,14.2
2017-05-28T04:42:05.500Z,14.3
2017-05-28T04:43:24.177Z,14.4
2017-05-28T04:44:42.845Z,14.5
2017-05-28T04:46:01.567Z,14.6
2017-05-28T04:47:20.300Z,14.9
2017-05-28T04:48:38.998Z,15.2
2017-05-28T04:49:57.715Z,15.3
2017-05-28T04:51:16.388Z,15.5
2017-05-28T04:52:35.062Z,15.8
2017-05-28T04:53:53.745Z,16.1
2017-05-28T04:55:12.431Z,16.3
2017-05-28T04:56:31.109Z,16.4
2017-05-28T04:57:49.804Z,16.6
2017-05-28T04:59:08.477Z,16.7
2017-05-28T05:00:27.149Z,16.7
2017-05-28T05:01:45.825Z,16.8
2017-05-28T05:03:04.500Z,16.9
2017-05-28T05:04:23.208Z,17.1
2017-05-28T05:05:41.878Z,17.1
2017-05-28T05:07:00.597Z,17.2
2017-05-28T05:08:19.314Z,17.3
2017-05-28T05:09:37.979Z,17.4
2017-05-28T05:10:56.642Z,17.5
2017-05-28T05:12:15.330Z,17.6
2017-05-28T05:13:34.100Z,17.6
2017-05-28T05:14:52.760Z,17.7
2017-05-28T05:16:11.451Z,17.7
2017-05-28T05:17:30.115Z,17.8
2017-05-28T05:18:48.804Z,17.9
2017-05-28T05:20:07.468Z,18
2017-05-28T05:21:26.132Z,18
2017-05-28T05:22:44.802Z,18
2017-05-28T05:24:03.532Z,18.1
2017-05-28T05:25:22.201Z,18.1
2017-05-28T05:26:40.872Z,18
2017-05-28T05:27:59.571Z,18.1
2017-05-28T05:29:18.264Z,18
2017-05-28T05:30:36.990Z,18
2017-05-28T05:31:55.710Z,18.1
2017-05-28T05:33:14.376Z,18.1
2017-05-28T05:34:33.048Z,18.1
2017-05-28T05:35:51.716Z,18.2
2017-05-28T05:37:10.380Z,18.2
2017-05-28T05:38:29.119Z,18.1
2017-05-28T05:39:47.799Z,18.1
2017-05-28T05:41:06.516Z,18.1
2017-05-28T05:42:25.191Z,18.2
2017-05-28T05:43:43.893Z,18.3
2017-05-28T05:45:02.582Z,18.4
2017-05-28T05:46:21.292Z,18.5
2017-05-28T05:47:39.975Z,18.5
2017-05-28T05:48:58.681Z,18.5
2017-05-28T05:50:17.409Z,18.6
2017-05-28T05:51:36.078Z,18.6
2017-05-28T05:52:54.779Z,18.5
2017-05-28T05:54:13.448Z,18.5
2017-05-28T05:55:32.121Z,18.6
2017-05-28T05:56:50.787Z,18.5
2017-05-28T05:58:09.486Z,18.6
2017-05-28T05:59:28.162Z,18.6
2017-05-28T06:00:46.896Z,18.7
2017-05-28T06:02:05.564Z,18.7
2017-05-28T06:03:24.232Z,18.8
2017-05-28T06:04:42.939Z,18.9
2017-05-28T06:06:01.620Z,18.9
2017-05-28T06:07:20.339Z,19
2017-05-28T06:08:39.039Z,19
2017-05-28T06:09:57.700Z,19
2017-05-28T06:11:16.373Z,19.1
2017-05-28T06:12:35.088Z,19.3
2017-05-28T06:13:53.791Z,19.3
2017-05-28T06:15:12.475Z,19.4
2017-05-28T06:16:31.156Z,19.4
2017-05-28T06:17:49.857Z,19.5
2017-05-28T06:19:08.562Z,19.6
2017-05-28T06:20:27.285Z,19.6
2017-05-28T06:21:46.017Z,19.7
2017-05-28T06:23:04.680Z,19.8
2017-05-28T06:24:23.349Z,19.8
2017-05-28T06:25:42.020Z,19.9
2017-05-28T06:27:00.698Z,19.9
2017-05-28T06:28:19.396Z,20
2017-05-28T06:29:38.060Z,20
2017-05-28T06:30:56.725Z,20.1
2017-05-28T06:32:15.447Z,20.1
2017-05-28T06:33:34.139Z,20.2
2017-05-28T06:34:52.842Z,20.3
2017-05-28T06:36:11.557Z,20.3
2017-05-28T06:37:30.230Z,20.4
2017-05-28T06:38:48.925Z,20.4
2017-05-28T06:40:07.599Z,20.3
2017-05-28T06:41:26.269Z,20.3
2017-05-28T06:42:44.948Z,20.2
2017-05-28T06:44:03.641Z,20.3
2017-05-28T06:45:22.374Z,20.3
2017-05-28T06:46:41.052Z,20.4
2017-05-28T06:47:59.769Z,20.5
2017-05-28T06:49:18.440Z,20.6
2017-05-28T06:50:37.111Z,20.6
2017-05-28T06:51:55.782Z,20.7
2017-05-28T06:53:14.514Z,20.8
2017-05-28T06:54:33.186Z,20.8
2017-05-28T06:55:51.909Z,20.9
2017-05-28T06:57:10.613Z,20.9
2017-05-28T06:58:29.318Z,21
2017-05-28T06:59:48.020Z,21
2017-05-28T07:01:06.709Z,21.1
2017-05-28T07:02:25.424Z,21.1
2017-05-28T07:03:44.175Z,21.2
2017-05-28T07:05:02.847Z,21.3
2017-05-28T07:06:21.565Z,21.3
2017-05-28T07:07:40.238Z,21.4
2017-05-28T07:08:58.944Z,21.4
2017-05-28T07:10:17.670Z,21.4
2017-05-28T07:11:36.345Z,21.4
2017-05-28T07:12:55.017Z,21.6
2017-05-28T07:14:13.698Z,21.7
2017-05-28T07:15:32.403Z,21.8
2017-05-28T07:16:51.068Z,21.7
2017-05-28T07:18:09.738Z,21.7
2017-05-28T07:19:28.431Z,21.7
2017-05-28T07:20:47.156Z,21.7
2017-05-28T07:22:05.828Z,21.8
2017-05-28T07:23:24.493Z,21.8
2017-05-28T07:24:43.172Z,21.8
2017-05-28T07:26:01.847Z,21.8
2017-05-28T07:27:20.569Z,21.8
2017-05-28T07:28:39.235Z,21.9
2017-05-28T07:29:57.940Z,21.9
2017-05-28T07:31:16.604Z,22
2017-05-28T07:32:35.324Z,22.1
2017-05-28T07:33:54.057Z,22.1
2017-05-28T07:35:12.754Z,22.1
2017-05-28T07:36:31.466Z,22
2017-05-28T07:37:50.183Z,22.1
2017-05-28T07:39:08.874Z,22.2
2017-05-28T07:40:27.569Z,22.2
2017-05-28T07:41:46.240Z,22.2
2017-05-28T07:43:04.906Z,22.2
2017-05-28T07:44:23.624Z,22.2
2017-05-28T07:45:42.355Z,22.2
2017-05-28T07:47:01.075Z,22.3
2017-05-28T07:48:19.780Z,22.3
2017-05-28T07:49:38.453Z,22.3
2017-05-28T07:50:57.190Z,22.3
2017-05-28T07:52:15.853Z,22.4
2017-05-28T07:53:34.573Z,22.4
2017-05-28T07:54:53.244Z,22.5
2017-05-28T07:56:11.920Z,22.5
2017-05-28T07:57:30.587Z,22.6
2017-05-28T07:58:49.303Z,22.6
2017-05-28T08:00:07.973Z,22.6
2017-05-28T08:01:26.645Z,22.6
2017-05-28T08:02:45.334Z,22.7
2017-05-28T08:04:04.028Z,22.7
2017-05-28T08:05:22.756Z,22.8
2017-05-28T08:06:41.446Z,22.8
2017-05-28T08:08:00.163Z,22.8
2017-05-28T08:09:18.859Z,22.8
2017-05-28T08:10:37.570Z,22.7
2017-05-28T08:11:56.253Z,22.8
2017-05-28T08:13:14.913Z,22.7
2017-05-28T08:14:33.611Z,22.8
2017-05-28T08:15:52.340Z,22.9
2017-05-28T08:17:11.055Z,22.9
2017-05-28T08:18:29.724Z,22.9
2017-05-28T08:19:48.392Z,22.9
2017-05-28T08:21:07.114Z,23
2017-05-28T08:22:25.802Z,22.9
2017-05-28T08:23:44.486Z,23
2017-05-28T08:25:03.168Z,23.1
2017-05-28T08:26:21.828Z,23.1
2017-05-28T08:27:40.501Z,23.1
2017-05-28T08:28:59.224Z,23.1
2017-05-28T08:30:17.895Z,23.1
2017-05-28T08:31:36.597Z,23.2
2017-05-28T08:32:55.338Z,23.2
2017-05-28T08:34:14.042Z,23.3
2017-05-28T08:35:32.765Z,23.4
2017-05-28T08:36:51.453Z,23.5
2017-05-28T08:38:10.130Z,23.6
2017-05-28T08:39:28.813Z,23.6
2017-05-28T08:40:47.501Z,23.5
2017-05-28T08:42:06.195Z,23.4
2017-05-28T08:43:24.885Z,23.4
2017-05-28T08:44:43.561Z,23.5
2017-05-28T08:46:02.226Z,23.5
2017-05-28T08:47:20.943Z,23.6
2017-05-28T08:48:39.659Z,23.7
2017-05-28T08:49:58.357Z,23.7
2017-05-28T08:51:17.026Z,23.7
2017-05-28T08:52:35.698Z,23.7
2017-05-28T08:53:54.393Z,23.8
2017-05-28T08:55:13.090Z,23.8
2017-05-28T08:56:31.789Z,23.9
2017-05-28T08:57:50.460Z,23.9
2017-05-28T08:59:09.156Z,23.9
2017-05-28T09:00:27.836Z,24
2017-05-28T09:01:46.556Z,24
2017-05-28T09:03:05.223Z,24.1
2017-05-28T09:04:23.922Z,24.1
2017-05-28T09:05:42.614Z,24.1
2017-05-28T09:07:01.339Z,24.1
2017-05-28T09:08:20.018Z,24.1
2017-05-28T09:09:38.707Z,24
2017-05-28T09:10:57.402Z,23.9
2017-05-28T09:12:16.066Z,23.8
2017-05-28T09:13:34.736Z,23.8
2017-05-28T09:14:53.459Z,23.9
2017-05-28T09:16:12.124Z,24
2017-05-28T09:17:30.791Z,24.1
2017-05-28T09:18:49.468Z,24.1
2017-05-28T09:20:08.143Z,24.2
2017-05-28T09:21:26.861Z,24.3
2017-05-28T09:22:45.570Z,24.3
2017-05-28T09:24:04.271Z,24.3
2017-05-28T09:25:22.954Z,24.3
2017-05-28T09:26:41.619Z,24.4
2017-05-28T09:28:00.336Z,24.4
2017-05-28T09:29:19.067Z,24.4
2017-05-28T09:30:37.741Z,24.5
2017-05-28T09:31:56.411Z,24.6
2017-05-28T09:33:15.088Z,24.7
2017-05-28T09:34:33.780Z,24.7
2017-05-28T09:35:52.495Z,24.8
2017-05-28T09:37:11.160Z,24.8
2017-05-28T09:38:29.880Z,25
2017-05-28T09:39:48.592Z,25.2
2017-05-28T09:41:07.322Z,25.3
2017-05-28T09:42:25.986Z,25.4
2017-05-28T09:43:44.703Z,25.5
2017-05-28T09:45:03.369Z,25.6
2017-05-28T09:46:22.049Z,25.9
2017-05-28T09:47:40.776Z,26.2
2017-05-28T09:48:59.448Z,26.3
2017-05-28T09:50:18.120Z,26.5
2017-05-28T09:51:36.804Z,26.6
2017-05-28T09:52:55.476Z,26.7
2017-05-28T09:54:14.155Z,26.9
2017-05-28T09:55:32.832Z,26.9
2017-05-28T09:56:51.577Z,27
2017-05-28T09:58:10.246Z,27.1
2017-05-28T09:59:28.996Z,27.1
2017-05-28T10:00:47.659Z,27
2017-05-28T10:02:06.340Z,26.7
2017-05-28T10:03:25.009Z,26.5
2017-05-28T10:04:43.676Z,26.4
2017-05-28T10:06:02.400Z,26.4
2017-05-28T10:07:21.078Z,26.4
2017-05-28T10:08:39.744Z,26.3
2017-05-28T10:09:58.410Z,26.3
2017-05-28T10:11:17.091Z,26.3
2017-05-28T10:12:35.819Z,26.4
2017-05-28T10:13:54.541Z,26.4
2017-05-28T10:15:13.220Z,26.4
2017-05-28T10:16:31.898Z,26.4
2017-05-28T10:17:50.577Z,26.5
2017-05-28T10:19:09.303Z,26.5
2017-05-28T10:20:27.980Z,26.5
2017-05-28T10:21:46.644Z,26.5
2017-05-28T10:23:05.361Z,26.5
2017-05-28T10:24:24.064Z,26.5
2017-05-28T10:25:42.776Z,26.5
2017-05-28T10:27:01.446Z,26.6
2017-05-28T10:28:20.151Z,26.7
2017-05-28T10:29:38.898Z,26.7
2017-05-28T10:30:57.566Z,26.8
2017-05-28T10:32:16.234Z,27
2017-05-28T10:33:34.908Z,27.1
2017-05-28T10:34:53.575Z,27.1
2017-05-28T10:36:12.245Z,27.2
2017-05-28T10:37:30.970Z,27.2
2017-05-28T10:38:49.646Z,27.3
2017-05-28T10:40:08.371Z,27.3
2017-05-28T10:41:27.039Z,27.3
2017-05-28T10:42:45.707Z,27.3
2017-05-28T10:44:04.388Z,27.4
2017-05-28T10:45:23.055Z,27.4
2017-05-28T10:46:41.767Z,27.5
2017-05-28T10:48:00.445Z,27.7
2017-05-28T10:49:19.180Z,28
2017-05-28T10:50:37.897Z,28.1
2017-05-28T10:51:56.621Z,28.1
2017-05-28T10:53:15.330Z,28.1
2017-05-28T10:54:34.064Z,28.1
2017-05-28T10:55:52.725Z,28.2
2017-05-28T10:57:11.392Z,28.4
2017-05-28T10:58:30.070Z,28.5
2017-05-28T10:59:48.761Z,28.5
2017-05-28T11:01:07.441Z,28.5
2017-05-28T11:02:26.112Z,28.4
2017-05-28T11:03:44.839Z,28.3
2017-05-28T11:05:03.511Z,28.2
2017-05-28T11:06:22.187Z,28.1
2017-05-28T11:07:40.850Z,28.1
2017-05-28T11:08:59.566Z,28.1
2017-05-28T11:10:18.246Z,28
2017-05-28T11:11:36.910Z,27.7
2017-05-28T11:12:55.633Z,27.7
2017-05-28T11:14:14.342Z,27.6
2017-05-28T11:15:33.053Z,27.6
2017-05-28T11:16:51.725Z,27.5
2017-05-28T11:18:10.398Z,27.5
2017-05-28T11:19:29.116Z,27.4
2017-05-28T11:20:47.831Z,27.4
2017-05-28T11:22:06.499Z,27.5
2017-05-28T11:23:25.197Z,27.6
2017-05-28T11:24:43.894Z,27.6
2017-05-28T11:26:02.574Z,27.6
2017-05-28T11:27:21.239Z,27.5
2017-05-28T11:28:39.904Z,27.6
2017-05-28T11:29:58.584Z,27.7
2017-05-28T11:31:17.327Z,27.7
2017-05-28T11:32:36.047Z,27.6
2017-05-28T11:33:54.721Z,27.5
2017-05-28T11:35:13.424Z,27.6
2017-05-28T11:36:32.130Z,27.5
2017-05-28T11:37:50.801Z,27.5
2017-05-28T11:39:09.471Z,27.5
2017-05-28T11:40:28.140Z,27.5
2017-05-28T11:41:46.928Z,27.5
2017-05-28T11:43:05.601Z,27.4
2017-05-28T11:44:24.318Z,27.5
2017-05-28T11:45:42.990Z,27.6
2017-05-28T11:47:01.722Z,27.8
2017-05-28T11:48:20.428Z,28.3
2017-05-28T11:49:39.144Z,29.1
2017-05-28T11:50:57.865Z,29.9
2017-05-28T11:52:16.584Z,31.7
2017-05-28T11:53:35.255Z,34.4
2017-05-28T11:54:53.948Z,35
2017-05-28T11:56:12.660Z,35.4
2017-05-28T11:57:31.392Z,35.8
2017-05-28T11:58:50.063Z,36
2017-05-28T12:00:08.733Z,36.2
2017-05-28T12:01:27.443Z,36.3
2017-05-28T12:02:46.128Z,36.5
2017-05-28T12:04:04.824Z,36.5
2017-05-28T12:05:23.538Z,36.6
2017-05-28T12:06:42.208Z,36.7
2017-05-28T12:08:00.881Z,36.8
2017-05-28T12:09:19.573Z,36.9
2017-05-28T12:10:38.269Z,36.9
2017-05-28T12:11:56.934Z,36.9
2017-05-28T12:13:15.609Z,37.1
2017-05-28T12:14:34.276Z,37.2
2017-05-28T12:15:52.943Z,37.2
2017-05-28T12:17:11.647Z,37.2
2017-05-28T12:18:30.352Z,37.2
2017-05-28T12:19:49.099Z,37.3
2017-05-28T12:21:07.769Z,37.3
2017-05-28T12:22:26.441Z,37.3
2017-05-28T12:23:45.169Z,37.3
2017-05-28T12:25:03.857Z,37.4
2017-05-28T12:26:22.577Z,37.4
2017-05-28T12:27:41.303Z,37.4
2017-05-28T12:28:59.983Z,37.4
2017-05-28T12:30:18.655Z,37.5
2017-05-28T12:31:37.407Z,37.4
2017-05-28T12:32:56.088Z,37.5
2017-05-28T12:34:14.815Z,37.4
2017-05-28T12:35:33.504Z,37.3
2017-05-28T12:36:52.166Z,37.4
2017-05-28T12:38:10.888Z,37.5
2017-05-28T12:39:29.576Z,37.5
2017-05-28T12:40:48.248Z,37.6
2017-05-28T12:42:06.910Z,37.7
2017-05-28T12:43:25.625Z,37.8
2017-05-28T12:44:44.347Z,37.8
2017-05-28T12:46:03.057Z,37.5
2017-05-28T12:47:21.777Z,37.2
2017-05-28T12:48:40.452Z,36.9
2017-05-28T12:49:59.167Z,36.9
2017-05-28T12:51:17.830Z,36.8
2017-05-28T12:52:36.497Z,36.7
2017-05-28T12:53:55.162Z,36.8
2017-05-28T12:55:13.903Z,37.1
2017-05-28T12:56:32.567Z,37.4
2017-05-28T12:57:51.231Z,37.5
2017-05-28T12:59:09.893Z,37.6
2017-05-28T13:00:28.569Z,37.7
2017-05-28T13:01:47.245Z,37.8
2017-05-28T13:03:05.921Z,37.8
2017-05-28T13:04:24.628Z,37.8
2017-05-28T13:05:43.364Z,37.8
2017-05-28T13:07:02.035Z,37.8
2017-05-28T13:08:20.757Z,37.9
2017-05-28T13:09:39.423Z,37.9
2017-05-28T13:10:58.094Z,37.9
2017-05-28T13:12:16.816Z,38
2017-05-28T13:13:35.477Z,37.9
2017-05-28T13:14:54.161Z,37.9
2017-05-28T13:16:12.891Z,37.9
2017-05-28T13:17:31.609Z,38
2017-05-28T13:18:50.329Z,37.9
2017-05-28T13:20:09.055Z,37.9
2017-05-28T13:21:27.798Z,37.9
2017-05-28T13:22:46.464Z,37.9
2017-05-28T13:24:05.139Z,37.9
2017-05-28T13:25:23.835Z,37.9
2017-05-28T13:26:42.530Z,37.9
2017-05-28T13:28:01.203Z,38
2017-05-28T13:29:19.876Z,38.1
2017-05-28T13:30:38.583Z,38.1
2017-05-28T13:31:57.316Z,38
2017-05-28T13:33:15.986Z,38.1
2017-05-28T13:34:34.653Z,38.1
2017-05-28T13:35:53.372Z,38.1
2017-05-28T13:37:12.051Z,38.1
2017-05-28T13:38:30.714Z,37.9
2017-05-28T13:39:49.375Z,37.8
2017-05-28T13:41:08.084Z,37.6
2017-05-28T13:42:26.755Z,37.5
2017-05-28T13:43:45.426Z,37.7
2017-05-28T13:45:04.127Z,37.7
2017-05-28T13:46:22.829Z,37.6
2017-05-28T13:47:41.525Z,37.6
2017-05-28T13:49:00.195Z,37.5
2017-05-28T13:50:18.933Z,37.4
2017-05-28T13:51:37.613Z,37.3
2017-05-28T13:52:56.365Z,37.3
2017-05-28T13:54:15.032Z,37.3
2017-05-28T13:55:33.703Z,37.3
2017-05-28T13:56:52.404Z,37.3
2017-05-28T13:58:11.077Z,37.3
2017-05-28T13:59:29.762Z,37.1
2017-05-28T14:00:48.434Z,36.7
2017-05-28T14:02:07.105Z,36.9
2017-05-28T14:03:25.798Z,36.8
2017-05-28T14:04:44.463Z,37
2017-05-28T14:06:03.165Z,37.1
2017-05-28T14:07:21.892Z,37.1
2017-05-28T14:08:40.593Z,37.1
2017-05-28T14:09:59.265Z,37
2017-05-28T14:11:18.018Z,37.1
2017-05-28T14:12:36.686Z,36.9
2017-05-28T14:13:55.397Z,37
2017-05-28T14:15:14.089Z,37
2017-05-28T14:16:32.757Z,37.1
2017-05-28T14:17:51.424Z,37.2
2017-05-28T14:19:10.099Z,37.3
2017-05-28T14:20:28.835Z,37.4
2017-05-28T14:21:47.559Z,37.4
2017-05-28T14:23:06.293Z,37.5
2017-05-28T14:24:24.991Z,37.6
2017-05-28T14:25:43.662Z,37.6
2017-05-28T14:27:02.393Z,37.6
2017-05-28T14:28:21.103Z,37.6
2017-05-28T14:29:39.783Z,37.2
2017-05-28T14:30:58.441Z,36.7
2017-05-28T14:32:17.106Z,36.3
2017-05-28T14:33:35.833Z,36
2017-05-28T14:34:54.507Z,35.6
2017-05-28T14:36:13.200Z,35.4
2017-05-28T14:37:31.869Z,35.3
2017-05-28T14:38:50.578Z,35.1
2017-05-28T14:40:09.302Z,35
2017-05-28T14:41:27.992Z,34.9
2017-05-28T14:42:46.718Z,34.9
2017-05-28T14:44:05.386Z,34.9
2017-05-28T14:45:24.115Z,34.8
2017-05-28T14:46:42.833Z,34.8
2017-05-28T14:48:01.501Z,34.7
2017-05-28T14:49:20.172Z,34.7
2017-05-28T14:50:38.879Z,34.6
2017-05-28T14:51:57.600Z,34.5
2017-05-28T14:53:16.270Z,34.5
2017-05-28T14:54:34.993Z,34.5
2017-05-28T14:55:53.659Z,34.5
2017-05-28T14:57:12.406Z,34.5
2017-05-28T14:58:31.127Z,34.5
2017-05-28T14:59:49.793Z,34.4
2017-05-28T15:01:08.514Z,34.4
2017-05-28T15:02:27.193Z,34.4
2017-05-28T15:03:45.894Z,34.3
2017-05-28T15:05:04.571Z,34.3
2017-05-28T15:06:23.243Z,34.3
2017-05-28T15:07:41.910Z,34.2
2017-05-28T15:09:00.578Z,33.8
2017-05-28T15:10:19.256Z,33.5
2017-05-28T15:11:37.943Z,33.4
2017-05-28T15:12:56.613Z,33.3
2017-05-28T15:14:15.324Z,32.8
2017-05-28T15:15:34.026Z,32.8
2017-05-28T15:16:52.704Z,32.4
2017-05-28T15:18:11.376Z,32.6
2017-05-28T15:19:30.096Z,32.7
2017-05-28T15:20:48.776Z,32.7
2017-05-28T15:22:07.489Z,32.6
2017-05-28T15:23:26.155Z,32.4
2017-05-28T15:24:44.826Z,32.3
2017-05-28T15:26:03.537Z,32.3
2017-05-28T15:27:22.233Z,32.5
2017-05-28T15:28:40.897Z,32.6
2017-05-28T15:29:59.569Z,32.6
2017-05-28T15:31:18.247Z,32.7
2017-05-28T15:32:36.954Z,32.9
2017-05-28T15:33:55.627Z,33
2017-05-28T15:35:14.335Z,33.1
2017-05-28T15:36:33.055Z,33.1
2017-05-28T15:37:51.729Z,33
2017-05-28T15:39:10.451Z,32.9
2017-05-28T15:40:29.141Z,32.8
2017-05-28T15:41:47.834Z,33.1
2017-05-28T15:43:06.581Z,33.4
2017-05-28T15:44:25.303Z,33.2
2017-05-28T15:45:44.054Z,33
2017-05-28T15:47:02.719Z,32.7
2017-05-28T15:48:21.410Z,32.5
2017-05-28T15:49:40.078Z,32.4
2017-05-28T15:50:58.773Z,32.2
2017-05-28T15:52:17.443Z,32.3
2017-05-28T15:53:36.137Z,33.4
2017-05-28T15:54:54.814Z,34.4
2017-05-28T15:56:13.477Z,34.8
2017-05-28T15:57:32.150Z,35.1
2017-05-28T15:58:50.839Z,35.3
2017-05-28T16:00:09.561Z,35.4
2017-05-28T16:01:28.282Z,35.5
2017-05-28T16:02:46.957Z,35.2
2017-05-28T16:04:05.657Z,34.9
2017-05-28T16:05:24.341Z,34.7
2017-05-28T16:06:43.007Z,34.5
2017-05-28T16:08:01.671Z,34.5
2017-05-28T16:09:20.346Z,34.5
2017-05-28T16:10:39.053Z,34.5
2017-05-28T16:11:57.720Z,34.5
2017-05-28T16:13:16.449Z,34.5
2017-05-28T16:14:35.126Z,34.5
2017-05-28T16:15:53.804Z,34.9
2017-05-28T16:17:12.471Z,35.2
2017-05-28T16:18:31.147Z,35.3
2017-05-28T16:19:49.828Z,35.1
2017-05-28T16:21:08.499Z,35.1
2017-05-28T16:22:27.166Z,35.3
2017-05-28T16:23:45.836Z,35.3
2017-05-28T16:25:04.563Z,35.2
2017-05-28T16:26:23.287Z,35.2
2017-05-28T16:27:41.992Z,35.3
2017-05-28T16:29:00.675Z,35.3
2017-05-28T16:30:19.349Z,35.2
2017-05-28T16:31:38.020Z,35
2017-05-28T16:32:56.690Z,35
2017-05-28T16:34:15.365Z,35
2017-05-28T16:35:34.115Z,35.1
2017-05-28T16:36:52.790Z,35.1
2017-05-28T16:38:11.460Z,35.1
2017-05-28T16:39:30.141Z,35
2017-05-28T16:40:48.887Z,34.9
2017-05-28T16:42:07.605Z,34.8
2017-05-28T16:43:26.278Z,34.6
2017-05-28T16:44:44.983Z,34.5
2017-05-28T16:46:03.696Z,34.5
2017-05-28T16:47:22.432Z,34.4
2017-05-28T16:48:41.133Z,34.4
2017-05-28T16:49:59.858Z,34.4
2017-05-28T16:51:18.569Z,34.4
2017-05-28T16:52:37.294Z,34.4
2017-05-28T16:53:55.960Z,34.5
2017-05-28T16:55:14.624Z,34.4
2017-05-28T16:56:33.307Z,34.4
2017-05-28T16:57:51.971Z,34.3
2017-05-28T16:59:10.640Z,34.3
2017-05-28T17:00:29.316Z,34.3
2017-05-28T17:01:48.027Z,34.3
2017-05-28T17:03:06.738Z,34.3
2017-05-28T17:04:25.429Z,34.3
2017-05-28T17:05:44.160Z,34.3
2017-05-28T17:07:02.833Z,34.3
2017-05-28T17:08:21.555Z,34.3
2017-05-28T17:09:40.270Z,34
2017-05-28T17:10:58.975Z,34
2017-05-28T17:12:17.708Z,33.8
2017-05-28T17:13:36.378Z,33.3
2017-05-28T17:14:55.079Z,32.8
2017-05-28T17:16:13.818Z,32.6
2017-05-28T17:17:32.564Z,32.6
2017-05-28T17:18:51.234Z,33
2017-05-28T17:20:09.957Z,33.6
2017-05-28T17:21:28.624Z,34.3
2017-05-28T17:22:47.351Z,34.3
2017-05-28T17:24:06.019Z,34.4
2017-05-28T17:25:24.689Z,34.4
2017-05-28T17:26:43.354Z,34.4
2017-05-28T17:28:02.025Z,34.3
2017-05-28T17:29:20.691Z,33.3
2017-05-28T17:30:39.369Z,32.3
2017-05-28T17:31:58.058Z,31.6